Date,TemperatureHighF,TemperatureAvgF,TemperatureLowF,DewpointHighF,DewpointAvgF,DewpointLowF,HumidityHigh,HumidityAvg,HumidityLow,PressureMaxIn,PressureMinIn,WindSpeedMaxMPH,WindSpeedAvgMPH,GustSpeedMaxMPH,PrecipitationSumIn
2013-1-2,27,23,20,-100,-100,-100,0,0,100,0.00,40.00,0,-999,0,0.00
2013-1-3,25,19,9,-100,-100,-100,0,0,100,0.00,40.00,0,-999,0,0.00
2013-1-4,32,21,11,-100,-100,-100,0,0,100,0.00,40.00,0,-999,0,0.00
2013-1-5,35,23,9,-100,-100,-100,0,0,100,0.00,40.00,0,-999,0,0.00
2013-1-6,27,22,13,-100,-100,-100,0,0,100,0.00,40.00,0,-999,0,0.00
2013-1-7,37,28,14,-100,-100,-100,0,0,100,0.00,40.00,0,-999,0,0.00
2013-1-8,39,29,16,-100,-100,-100,0,0,100,0.00,40.00,0,-999,0,0.00
2013-1-9,37,32,22,-100,-100,-100,0,0,100,0.00,40.00,0,-999,0,0.00
2013-1-10,35,28,16,-100,-100,-100,0,0,100,0.00,40.00,0,-999,0,0.00
2013-1-11,42,37,33,-100,-100,-100,0,0,100,0.00,40.00,0,-999,0,0.00
2013-1-12,44,29,16,-100,-100,-100,0,0,100,0.00,40.00,0,-999,0,0.00
2013-1-13,16,13,11,-100,-100,-100,0,0,100,0.00,40.00,0,-999,0,0.00
2013-1-14,22,14,7,-100,-100,-100,0,0,100,0.00,40.00,0,-999,0,0.00
2013-1-15,32,19,5,-100,-100,-100,0,0,100,0.00,40.00,0,-999,0,0.00
2013-1-16,33,27,22,-100,-100,-100,0,0,100,0.00,40.00,0,-999,0,0.00
2013-1-17,23,17,13,-100,-100,-100,0,0,100,0.00,40.00,0,-999,0,0.00
2013-1-18,42,28,11,-100,-100,-100,0,0,100,0.00,40.00,0,-999,0,0.00
2013-1-19,44,34,7,-100,-100,-100,0,0,100,0.00,40.00,0,-999,0,0.00
2013-1-20,14,8,4,-100,-100,-100,0,0,100,0.00,40.00,0,-999,0,0.00
2013-1-21,7,-1,-5,-100,-100,-100,0,0,100,0.00,40.00,0,-999,0,0.00
2013-1-22,5,1,-7,-100,-100,-100,0,0,100,0.00,40.00,0,-999,0,0.00
2013-1-23,18,10,2,-100,-100,-100,0,0,100,0.00,40.00,0,-999,0,0.00
2013-1-24,13,4,-4,-100,-100,-100,0,0,100,0.00,40.00,0,-999,0,0.00
2013-1-25,23,17,11,-100,-100,-100,0,0,100,0.00,40.00,0,-999,0,0.00
2013-1-26,25,16,4,-100,-100,-100,0,0,100,0.00,40.00,0,-999,0,0.00
2013-1-27,31,28,23,-100,-100,-100,0,0,100,0.00,40.00,0,-999,0,0.00
2013-1-28,35,32,31,-100,-100,-100,0,0,100,0.00,40.00,0,-999,0,0.00
2013-1-29,41,35,32,-100,-100,-100,0,0,100,0.00,40.00,0,-999,0,0.00
2013-1-30,33,24,13,-100,-100,-100,0,0,100,0.00,40.00,0,-999,0,0.00
2013-1-31,9,6,2,-100,-100,-100,0,0,100,0.00,40.00,0,-999,0,0.00
2013-2-1,5,1,-9,-100,-100,-100,0,0,100,0.00,40.00,0,-999,0,0.00
2013-2-2,14,8,4,-100,-100,-100,0,0,100,0.00,40.00,0,-999,0,0.00
2013-2-3,18,13,7,-100,-100,-100,0,0,100,0.00,40.00,0,-999,0,0.00
2013-2-4,20,13,7,-100,-100,-100,0,0,100,0.00,40.00,0,-999,0,0.00
2013-2-5,27,19,4,-100,-100,-100,0,0,100,0.00,40.00,0,-999,0,0.00
2013-2-6,25,13,-4,-100,-100,-100,0,0,100,0.00,40.00,0,-999,0,0.00
2013-2-7,31,28,25,-100,-100,-100,0,0,100,0.00,40.00,0,-999,0,0.00
2013-2-8,29,22,7,-100,-100,-100,0,0,100,0.00,40.00,0,-999,0,0.00
2013-2-9,31,20,2,-100,-100,-100,0,0,100,0.00,40.00,0,-999,0,0.00
2013-2-10,37,31,27,-100,-100,-100,0,0,100,0.00,40.00,0,-999,0,0.00
2013-2-11,35,29,23,-100,-100,-100,0,0,100,0.00,40.00,0,-999,0,0.00
2013-2-12,33,26,20,-100,-100,-100,0,0,100,0.00,40.00,0,-999,0,0.00
2013-2-13,39,31,22,-100,-100,-100,0,0,100,0.00,40.00,0,-999,0,0.00
2013-2-14,35,31,20,-100,-100,-100,0,0,100,0.00,40.00,0,-999,0,0.00
2013-2-15,22,15,11,-100,-100,-100,0,0,100,0.00,40.00,0,-999,0,0.00
2013-2-16,18,12,4,-100,-100,-100,0,0,100,0.00,40.00,0,-999,0,0.00
2013-2-17,25,12,-9,-100,-100,-100,0,0,100,0.00,40.00,0,-999,0,0.00
2013-2-18,42,31,20,-100,-100,-100,0,0,100,0.00,40.00,0,-999,0,0.00
2013-2-19,20,12,5,-100,-100,-100,0,0,100,0.00,40.00,0,-999,0,0.00
2013-2-20,25,13,2,-100,-100,-100,0,0,100,0.00,40.00,0,-999,0,0.00
2013-2-21,22,14,4,-100,-100,-100,0,0,100,0.00,40.00,0,-999,0,0.00
2013-2-22,31,25,22,-100,-100,-100,0,0,100,0.00,40.00,0,-999,0,0.00
2013-2-23,31,26,22,-100,-100,-100,0,0,100,0.00,40.00,0,-999,0,0.00
2013-2-24,39,27,13,-100,-100,-100,0,0,100,0.00,40.00,0,-999,0,0.00
2013-2-25,41,30,22,-100,-100,-100,0,0,100,0.00,40.00,0,-999,0,0.00
2013-2-26,35,28,22,-100,-100,-100,0,0,100,0.00,40.00,0,-999,0,0.00
2013-2-27,32,31,29,-100,-100,-100,0,0,100,0.00,40.00,0,-999,0,0.00
2013-2-28,32,30,25,-100,-100,-100,0,0,100,0.00,40.00,0,-999,0,0.00
2013-3-1,29,24,20,-100,-100,-100,0,0,100,0.00,40.00,0,-999,0,0.00
2013-3-2,27,19,11,-100,-100,-100,0,0,100,0.00,40.00,0,-999,0,0.00
2013-3-3,33,18,2,-100,-100,-100,0,0,100,0.00,40.00,0,-999,0,0.00
2013-3-4,29,23,16,-100,-100,-100,0,0,100,0.00,40.00,0,-999,0,0.00
2013-3-5,27,25,23,-100,-100,-100,0,0,100,0.00,40.00,0,-999,0,0.00
2013-3-6,31,27,20,-100,-100,-100,0,0,100,0.00,40.00,0,-999,0,0.00
2013-3-7,37,21,4,-100,-100,-100,0,0,100,0.00,40.00,0,-999,0,0.00
2013-3-8,41,29,13,-100,-100,-100,0,0,100,0.00,40.00,0,-999,0,0.00
2013-3-9,39,35,31,-100,-100,-100,0,0,100,0.00,40.00,0,-999,0,0.00
2013-3-10,37,34,32,-100,-100,-100,0,0,100,0.00,40.00,0,-999,0,0.00
2013-3-11,32,30,27,-100,-100,-100,0,0,100,0.00,40.00,0,-999,0,0.00
2013-3-12,29,26,22,-100,-100,-100,0,0,100,0.00,40.00,0,-999,0,0.00
2013-3-13,31,23,14,-100,-100,-100,0,0,100,0.00,40.00,0,-999,0,0.00
2013-3-14,37,27,14,-100,-100,-100,0,0,100,0.00,40.00,0,-999,0,0.00
2013-3-15,35,31,25,-100,-100,-100,0,0,100,0.00,40.00,0,-999,0,0.00
2013-3-16,29,24,18,-100,-100,-100,0,0,100,0.00,40.00,0,-999,0,0.00
2013-3-17,29,20,9,-100,-100,-100,0,0,100,0.00,40.00,0,-999,0,0.00
2013-3-18,33,22,14,-100,-100,-100,0,0,100,0.00,40.00,0,-999,0,0.00
2013-3-19,25,18,11,-100,-100,-100,0,0,100,0.00,40.00,0,-999,0,0.00
2013-3-20,20,12,5,-100,-100,-100,0,0,100,0.00,40.00,0,-999,0,0.00
2013-3-21,29,15,4,-100,-100,-100,0,0,100,0.00,40.00,0,-999,0,0.00
2013-3-22,37,22,5,-100,-100,-100,0,0,100,0.00,40.00,0,-999,0,0.00
2013-3-23,41,28,16,-100,-100,-100,0,0,100,0.00,40.00,0,-999,0,0.00
2013-3-24,32,30,29,-100,-100,-100,0,0,100,0.00,40.00,0,-999,0,0.00
2013-3-25,35,29,22,-100,-100,-100,0,0,100,0.00,40.00,0,-999,0,0.00
2013-3-26,37,32,27,-100,-100,-100,0,0,100,0.00,40.00,0,-999,0,0.00
2013-3-27,42,35,29,-100,-100,-100,0,0,100,0.00,40.00,0,-999,0,0.00
2013-3-28,46,34,20,-100,-100,-100,0,0,100,0.00,40.00,0,-999,0,0.00
2013-3-29,50,36,22,-100,-100,-100,0,0,100,0.00,40.00,0,-999,0,0.00
2013-3-30,48,41,33,-100,-100,-100,0,0,100,0.00,40.00,0,-999,0,0.00
2013-3-31,39,35,31,-100,-100,-100,0,0,100,0.00,40.00,0,-999,0,0.00
2013-4-1,33,28,22,-100,-100,-100,0,0,100,0.00,40.00,0,-999,0,0.00
2013-4-2,35,29,22,-100,-100,-100,0,0,100,0.00,40.00,0,-999,0,0.00
2013-4-3,46,33,20,-100,-100,-100,0,0,100,0.00,40.00,0,-999,0,0.00
2013-4-4,50,41,33,-100,-100,-100,0,0,100,0.00,40.00,0,-999,0,0.00
2013-4-5,46,37,29,-100,-100,-100,0,0,100,0.00,40.00,0,-999,0,0.00
2013-4-6,53,41,32,-100,-100,-100,0,0,100,0.00,40.00,0,-999,0,0.00
2013-4-7,46,39,35,-100,-100,-100,0,0,100,0.00,40.00,0,-999,0,0.00
2013-4-8,44,38,35,-100,-100,-100,0,0,100,0.00,40.00,0,-999,0,0.00
2013-4-9,39,36,32,-100,-100,-100,0,0,100,0.00,40.00,0,-999,0,0.00
2013-4-10,33,32,31,-100,-100,-100,0,0,100,0.00,40.00,0,-999,0,0.00
2013-4-11,33,32,31,-100,-100,-100,0,0,100,0.00,40.00,0,-999,0,0.00
2013-4-12,37,32,29,-100,-100,-100,0,0,100,0.00,40.00,0,-999,0,0.00
2013-4-13,37,33,31,-100,-100,-100,0,0,100,0.00,40.00,0,-999,0,0.00
2013-4-14,37,32,29,-100,-100,-100,0,0,100,0.00,40.00,0,-999,0,0.00
2013-4-15,50,40,32,-100,-100,-100,0,0,100,0.00,40.00,0,-999,0,0.00
2013-4-16,48,38,32,-100,-100,-100,0,0,100,0.00,40.00,0,-999,0,0.00
2013-4-17,37,34,31,-100,-100,-100,0,0,100,0.00,40.00,0,-999,0,0.00
2013-4-18,41,38,35,-100,-100,-100,0,0,100,0.00,40.00,0,-999,0,0.00
2013-4-19,37,33,29,-100,-100,-100,0,0,100,0.00,40.00,0,-999,0,0.00
2013-4-20,42,34,23,-100,-100,-100,0,0,100,0.00,40.00,0,-999,0,0.00
2013-4-21,50,37,31,-100,-100,-100,0,0,100,0.00,40.00,0,-999,0,0.00
2013-4-22,48,46,46,-100,-100,-100,0,0,100,0.00,40.00,0,-999,0,0.00
2013-4-23,48,38,33,-100,-100,-100,0,0,100,0.00,40.00,0,-999,0,0.00
2013-4-24,53,40,29,-100,-100,-100,0,0,100,0.00,40.00,0,-999,0,0.00
2013-4-25,50,41,35,-100,-100,-100,0,0,100,0.00,40.00,0,-999,0,0.00
2013-4-26,71,54,33,-100,-100,-100,0,0,100,0.00,40.00,0,-999,0,0.00
2013-4-27,71,59,46,-100,-100,-100,0,0,100,0.00,40.00,0,-999,0,0.00
2013-4-28,75,58,41,-100,-100,-100,0,0,100,0.00,40.00,0,-999,0,0.00
2013-4-29,73,64,55,-100,-100,-100,0,0,100,0.00,40.00,0,-999,0,0.00
2013-4-30,84,71,55,-100,-100,-100,0,0,100,0.00,40.00,0,-999,0,0.00
2013-5-1,59,52,39,-100,-100,-100,0,0,100,0.00,40.00,0,-999,0,0.00
2013-5-2,39,36,32,-100,-100,-100,0,0,100,0.00,40.00,0,-999,0,0.00
2013-5-3,39,34,32,-100,-100,-100,0,0,100,0.00,40.00,0,-999,0,0.00
2013-5-4,66,52,39,-100,-100,-100,0,0,100,0.00,40.00,0,-999,0,0.00
2013-5-5,71,57,42,-100,-100,-100,0,0,100,0.00,40.00,0,-999,0,0.00
2013-5-6,75,60,42,-100,-100,-100,0,0,100,0.00,40.00,0,-999,0,0.00
2013-5-7,80,63,46,-100,-100,-100,0,0,100,0.00,40.00,0,-999,0,0.00
2013-5-8,82,66,46,-100,-100,-100,0,0,100,0.00,40.00,0,-999,0,0.00
2013-5-9,64,56,48,-100,-100,-100,0,0,100,0.00,40.00,0,-999,0,0.00
2013-5-10,62,49,39,-100,-100,-100,0,0,100,0.00,40.00,0,-999,0,0.00
2013-5-11,53,47,41,-100,-100,-100,0,0,100,0.00,40.00,0,-999,0,0.00
2013-5-12,53,43,33,-100,-100,-100,0,0,100,0.00,40.00,0,-999,0,0.00
2013-5-13,66,50,32,-100,-100,-100,0,0,100,0.00,40.00,0,-999,0,0.00
2013-5-14,89,70,55,-100,-100,-100,0,0,100,0.00,40.00,0,-999,0,0.00
2013-5-15,75,67,59,-100,-100,-100,0,0,100,0.00,40.00,0,-999,0,0.00
2013-5-16,84,67,48,-100,-100,-100,0,0,100,0.00,40.00,0,-999,0,0.00
2013-5-17,62,53,46,-100,-100,-100,0,0,100,0.00,40.00,0,-999,0,0.00
2013-5-18,78,62,50,-100,-100,-100,0,0,100,0.00,40.00,0,-999,0,0.00
2013-5-19,84,71,59,-100,-100,-100,0,0,100,0.00,40.00,0,-999,0,0.00
2013-5-20,82,71,60,-100,-100,-100,0,0,100,0.00,40.00,0,-999,0,0.00
2013-5-21,71,65,59,-100,-100,-100,0,0,100,0.00,40.00,0,-999,0,0.00
2013-5-22,60,56,50,-100,-100,-100,0,0,100,0.00,40.00,0,-999,0,0.00
2013-5-23,59,52,44,-100,-100,-100,0,0,100,0.00,40.00,0,-999,0,0.00
2013-5-24,62,52,39,-100,-100,-100,0,0,100,0.00,40.00,0,-999,0,0.00
2013-5-25,60,54,48,-100,-100,-100,0,0,100,0.00,40.00,0,-999,0,0.00
2013-5-26,60,54,46,-100,-100,-100,0,0,100,0.00,40.00,0,-999,0,0.00
2013-5-27,55,52,50,-100,-100,-100,0,0,100,0.00,40.00,0,-999,0,0.00
2013-5-28,60,53,48,-100,-100,-100,0,0,100,0.00,40.00,0,-999,0,0.00
2013-5-29,82,67,57,-100,-100,-100,0,0,100,0.00,40.00,0,-999,0,0.00
2013-5-30,80,70,60,-100,-100,-100,0,0,100,0.00,40.00,0,-999,0,0.00
2013-5-31,78,69,60,-100,-100,-100,0,0,100,0.00,40.00,0,-999,0,0.00
2013-6-1,77,65,53,-100,-100,-100,0,0,100,0.00,40.00,0,-999,0,0.00
2013-6-2,60,51,44,-100,-100,-100,0,0,100,0.00,40.00,0,-999,0,0.00
2013-6-3,71,58,42,-100,-100,-100,0,0,100,0.00,40.00,0,-999,0,0.00
2013-6-4,60,53,51,-100,-100,-100,0,0,100,0.00,40.00,0,-999,0,0.00
2013-6-5,55,52,50,-100,-100,-100,0,0,100,0.00,40.00,0,-999,0,0.00
2013-6-6,55,52,50,-100,-100,-100,0,0,100,0.00,40.00,0,-999,0,0.00
2013-6-7,69,57,50,-100,-100,-100,0,0,100,0.00,40.00,0,-999,0,0.00
2013-6-8,62,58,53,-100,-100,-100,0,0,100,0.00,40.00,0,-999,0,0.00
2013-6-9,71,59,53,-100,-100,-100,0,0,100,0.00,40.00,0,-999,0,0.00
2013-6-10,78,67,57,-100,-100,-100,0,0,100,0.00,40.00,0,-999,0,0.00
2013-6-11,78,68,55,-100,-100,-100,0,0,100,0.00,40.00,0,-999,0,0.00
2013-6-12,73,65,60,-100,-100,-100,0,0,100,0.00,40.00,0,-999,0,0.00
2013-6-13,73,66,59,-100,-100,-100,0,0,100,0.00,40.00,0,-999,0,0.00
2013-6-14,77,66,51,-100,-100,-100,0,0,100,0.00,40.00,0,-999,0,0.00
2013-6-15,80,67,60,-100,-100,-100,0,0,100,0.00,40.00,0,-999,0,0.00
2013-6-16,84,69,57,-100,-100,-100,0,0,100,0.00,40.00,0,-999,0,0.00
2013-6-17,84,72,60,-100,-100,-100,0,0,100,0.00,40.00,0,-999,0,0.00
2013-6-18,69,61,51,-100,-100,-100,0,0,100,0.00,40.00,0,-999,0,0.00
2013-6-19,78,66,50,-100,-100,-100,0,0,100,0.00,40.00,0,-999,0,0.00
2013-6-20,84,69,57,-100,-100,-100,0,0,100,0.00,40.00,0,-999,0,0.00
2013-6-22,82,70,62,-100,-100,-100,0,0,100,0.00,40.00,0,-999,0,0.00
2013-6-23,80,73,64,-100,-100,-100,0,0,100,0.00,40.00,0,-999,0,0.00
2013-6-24,80,72,64,-100,-100,-100,0,0,100,0.00,40.00,0,-999,0,0.00
2013-6-25,77,70,64,-100,-100,-100,0,0,100,0.00,40.00,0,-999,0,0.00
2013-6-26,86,76,69,-100,-100,-100,0,0,100,0.00,40.00,0,-999,0,0.00
2013-6-27,87,76,68,-100,-100,-100,0,0,100,0.00,40.00,0,-999,0,0.00
2013-6-28,75,67,62,-100,-100,-100,0,0,100,0.00,40.00,0,-999,0,0.00
2013-6-29,68,62,59,-100,-100,-100,0,0,100,0.00,40.00,0,-999,0,0.00
2013-6-30,75,64,55,-100,-100,-100,0,0,100,0.00,40.00,0,-999,0,0.00
2013-7-1,78,66,53,-100,-100,-100,0,0,100,0.00,40.00,0,-999,0,0.00
2013-7-2,73,65,57,-100,-100,-100,0,0,100,0.00,40.00,0,-999,0,0.00
2013-7-3,73,63,50,-100,-100,-100,0,0,100,0.00,40.00,0,-999,0,0.00
2013-7-4,84,70,57,-100,-100,-100,0,0,100,0.00,40.00,0,-999,0,0.00
2013-7-5,86,73,59,-100,-100,-100,0,0,100,0.00,40.00,0,-999,0,0.00
2013-7-6,87,75,68,-100,-100,-100,0,0,100,0.00,40.00,0,-999,0,0.00
2013-7-7,89,78,69,-100,-100,-100,0,0,100,0.00,40.00,0,-999,0,0.00
2013-7-8,87,79,73,-100,-100,-100,0,0,100,0.00,40.00,0,-999,0,0.00
2013-7-9,84,75,68,-100,-100,-100,0,0,100,0.00,40.00,0,-999,0,0.00
2013-7-10,77,71,62,-100,-100,-100,0,0,100,0.00,40.00,0,-999,0,0.00
2013-7-11,82,70,55,-100,-100,-100,0,0,100,0.00,40.00,0,-999,0,0.00
2013-7-12,84,72,57,-100,-100,-100,0,0,100,0.00,40.00,0,-999,0,0.00
2013-7-13,80,70,60,-100,-100,-100,0,0,100,0.00,40.00,0,-999,0,0.00
2013-7-14,86,75,59,-100,-100,-100,0,0,100,0.00,40.00,0,-999,0,0.00
2013-7-15,87,77,64,-100,-100,-100,0,0,100,0.00,40.00,0,-999,0,0.00
2013-7-16,95,82,69,-100,-100,-100,0,0,100,0.00,40.00,0,-999,0,0.00
2013-7-17,96,84,73,-100,-100,-100,0,0,100,0.00,40.00,0,-999,0,0.00
2013-7-18,95,85,73,-100,-100,-100,0,0,100,0.00,40.00,0,-999,0,0.00
2013-7-19,93,82,69,-100,-100,-100,0,0,100,0.00,40.00,0,-999,0,0.00
2013-7-20,80,71,60,-100,-100,-100,0,0,100,0.00,40.00,0,-999,0,0.00
2013-7-21,68,64,59,-100,-100,-100,0,0,100,0.00,40.00,0,-999,0,0.00
2013-7-22,86,71,59,-100,-100,-100,0,0,100,0.00,40.00,0,-999,0,0.00
2013-7-23,71,65,59,-100,-100,-100,0,0,100,0.00,40.00,0,-999,0,0.00
2013-7-24,73,62,50,-100,-100,-100,0,0,100,0.00,40.00,0,-999,0,0.00
2013-7-25,82,67,55,-100,-100,-100,0,0,100,0.00,40.00,0,-999,0,0.00
2013-7-26,75,66,57,-100,-100,-100,0,0,100,0.00,40.00,0,-999,0,0.00
2013-7-27,60,52,46,-100,-100,-100,0,0,100,0.00,40.00,0,-999,0,0.00
2013-7-28,66,57,48,-100,-100,-100,0,0,100,0.00,40.00,0,-999,0,0.00
2013-7-29,75,64,53,-100,-100,-100,0,0,100,0.00,40.00,0,-999,0,0.00
2013-7-30,77,67,55,-100,-100,-100,0,0,100,0.00,40.00,0,-999,0,0.00
2013-7-31,78,68,62,-100,-100,-100,0,0,100,0.00,40.00,0,-999,0,0.00
2013-8-1,78,66,57,-100,-100,-100,0,0,100,0.00,40.00,0,-999,0,0.00
2013-8-2,77,68,59,-100,-100,-100,0,0,100,0.00,40.00,0,-999,0,0.00
2013-8-3,75,64,51,-100,-100,-100,0,0,100,0.00,40.00,0,-999,0,0.00
2013-8-4,73,62,50,-100,-100,-100,0,0,100,0.00,40.00,0,-999,0,0.00
2013-8-5,69,62,53,-100,-100,-100,0,0,100,0.00,40.00,0,-999,0,0.00
2013-8-6,84,73,64,-100,-100,-100,0,0,100,0.00,40.00,0,-999,0,0.00
2013-8-7,73,65,59,-100,-100,-100,0,0,100,0.00,40.00,0,-999,0,0.00
2013-8-8,75,63,48,-100,-100,-100,0,0,100,0.00,40.00,0,-999,0,0.00
2013-8-9,78,68,60,-100,-100,-100,0,0,100,0.00,40.00,0,-999,0,0.00
2013-8-10,73,64,55,-100,-100,-100,0,0,100,0.00,40.00,0,-999,0,0.00
2013-8-11,68,61,55,-100,-100,-100,0,0,100,0.00,40.00,0,-999,0,0.00
2013-8-12,78,65,55,-100,-100,-100,0,0,100,0.00,40.00,0,-999,0,0.00
2013-8-13,69,60,51,-100,-100,-100,0,0,100,0.00,40.00,0,-999,0,0.00
2013-8-14,75,59,48,-100,-100,-100,0,0,100,0.00,40.00,0,-999,0,0.00
2013-8-15,78,65,55,-100,-100,-100,0,0,100,0.00,40.00,0,-999,0,0.00
2013-8-16,80,66,50,-100,-100,-100,0,0,100,0.00,40.00,0,-999,0,0.00
2013-8-17,80,66,50,-100,-100,-100,0,0,100,0.00,40.00,0,-999,0,0.00
2013-8-18,82,68,53,-100,-100,-100,0,0,100,0.00,40.00,0,-999,0,0.00
2013-8-19,84,68,55,-100,-100,-100,0,0,100,0.00,40.00,0,-999,0,0.00
2013-8-20,86,75,62,-100,-100,-100,0,0,100,0.00,40.00,0,-999,0,0.00
2013-8-21,89,78,69,-100,-100,-100,0,0,100,0.00,40.00,0,-999,0,0.00
2013-8-22,82,71,64,-100,-100,-100,0,0,100,0.00,40.00,0,-999,0,0.00
2013-8-23,84,69,55,-100,-100,-100,0,0,100,0.00,40.00,0,-999,0,0.00
2013-8-24,82,71,57,-100,-100,-100,0,0,100,0.00,40.00,0,-999,0,0.00
2013-8-25,93,82,71,-100,-100,-100,0,0,100,0.00,40.00,0,-999,0,0.00
2013-8-26,93,81,73,-100,-100,-100,0,0,100,0.00,40.00,0,-999,0,0.00
2013-8-27,95,82,75,-100,-100,-100,0,0,100,0.00,40.00,0,-999,0,0.00
2013-8-28,82,77,73,-100,-100,-100,0,0,100,0.00,40.00,0,-999,0,0.00
2013-8-29,89,77,62,-100,-100,-100,0,0,100,0.00,40.00,0,-999,0,0.00
2013-8-30,84,77,68,-100,-100,-100,0,0,100,0.00,40.00,0,-999,0,0.00
2013-8-31,80,70,59,-100,-100,-100,0,0,100,0.00,40.00,0,-999,0,0.00
2013-9-1,82,72,66,-100,-100,-100,0,0,100,0.00,40.00,0,-999,0,0.00
2013-9-2,68,61,53,-100,-100,-100,0,0,100,0.00,40.00,0,-999,0,0.00
2013-9-3,75,60,44,-100,-100,-100,0,0,100,0.00,40.00,0,-999,0,0.00
2013-9-4,84,66,50,-100,-100,-100,0,0,100,0.00,40.00,0,-999,0,0.00
2013-9-5,77,66,59,-100,-100,-100,0,0,100,0.00,40.00,0,-999,0,0.00
2013-9-6,89,71,55,-100,-100,-100,0,0,100,0.00,40.00,0,-999,0,0.00
2013-9-7,89,77,68,-100,-100,-100,0,0,100,0.00,40.00,0,-999,0,0.00
2013-9-8,73,66,59,-100,-100,-100,0,0,100,0.00,40.00,0,-999,0,0.00
2013-9-9,89,74,60,-100,-100,-100,0,0,100,0.00,40.00,0,-999,0,0.00
2013-9-10,91,80,71,-100,-100,-100,0,0,100,0.00,40.00,0,-999,0,0.00
2013-9-11,86,74,64,-100,-100,-100,0,0,100,0.00,40.00,0,-999,0,0.00
2013-9-12,69,61,51,-100,-100,-100,0,0,100,0.00,40.00,0,-999,0,0.00
2013-9-13,64,53,42,-100,-100,-100,0,0,100,0.00,40.00,0,-999,0,0.00
2013-9-14,73,58,41,-100,-100,-100,0,0,100,0.00,40.00,0,-999,0,0.00
2013-9-15,64,57,53,-100,-100,-100,0,0,100,0.00,40.00,0,-999,0,0.00
2013-9-16,62,52,41,-100,-100,-100,0,0,100,0.00,40.00,0,-999,0,0.00
2013-9-17,64,52,39,-100,-100,-100,0,0,100,0.00,40.00,0,-999,0,0.00
2013-9-18,68,59,57,-100,-100,-100,0,0,100,0.00,40.00,0,-999,0,0.00
2013-9-19,82,73,64,-100,-100,-100,0,0,100,0.00,40.00,0,-999,0,0.00
2013-9-20,68,62,53,-100,-100,-100,0,0,100,0.00,40.00,0,-999,0,0.00
2013-9-21,60,52,46,-100,-100,-100,0,0,100,0.00,40.00,0,-999,0,0.00
2013-9-22,62,50,37,-100,-100,-100,0,0,100,0.00,40.00,0,-999,0,0.00
2013-9-23,68,55,44,-100,-100,-100,0,0,100,0.00,40.00,0,-999,0,0.00
2013-9-24,69,56,42,-100,-100,-100,0,0,100,0.00,40.00,0,-999,0,0.00
2013-9-25,68,53,44,-100,-100,-100,0,0,100,0.00,40.00,0,-999,0,0.00
2013-9-26,73,55,44,-100,-100,-100,0,0,100,0.00,40.00,0,-999,0,0.00
2013-9-27,78,63,48,-100,-100,-100,0,0,100,0.00,40.00,0,-999,0,0.00
2013-9-28,75,61,50,-100,-100,-100,0,0,100,0.00,40.00,0,-999,0,0.00
2013-9-29,71,56,42,-100,-100,-100,0,0,100,0.00,40.00,0,-999,0,0.00
2013-9-30,71,59,46,-100,-100,-100,0,0,100,0.00,40.00,0,-999,0,0.00
2013-10-1,69,58,53,-100,-100,-100,0,0,100,0.00,40.00,0,-999,0,0.00
2013-10-2,75,57,42,-100,-100,-100,0,0,100,0.00,40.00,0,-999,0,0.00
2013-10-3,66,59,53,-100,-100,-100,0,0,100,0.00,40.00,0,-999,0,0.00
2013-10-4,57,56,53,-100,-100,-100,0,0,100,0.00,40.00,0,-999,0,0.00
2013-10-5,66,59,53,-100,-100,-100,0,0,100,0.00,40.00,0,-999,0,0.00
2013-10-6,57,49,39,-100,-100,-100,0,0,100,0.00,40.00,0,-999,0,0.00
2013-10-7,64,52,44,-100,-100,-100,0,0,100,0.00,40.00,0,-999,0,0.00
2013-10-8,73,54,37,-100,-100,-100,0,0,100,0.00,40.00,0,-999,0,0.00
2013-10-9,71,60,48,-100,-100,-100,0,0,100,0.00,40.00,0,-999,0,0.00
2013-10-10,69,55,41,-100,-100,-100,0,0,100,0.00,40.00,0,-999,0,0.00
2013-10-11,71,59,44,-100,-100,-100,0,0,100,0.00,40.00,0,-999,0,0.00
2013-10-12,64,59,44,-100,-100,-100,0,0,100,0.00,40.00,0,-999,0,0.00
2013-10-13,59,48,39,-100,-100,-100,0,0,100,0.00,40.00,0,-999,0,0.00
2013-10-14,57,46,32,-100,-100,-100,0,0,100,0.00,40.00,0,-999,0,0.00
2013-10-15,57,50,46,-100,-100,-100,0,0,100,0.00,40.00,0,-999,0,0.00
2013-10-16,50,47,42,-100,-100,-100,0,0,100,0.00,40.00,0,-999,0,0.00
2013-10-17,57,42,32,-100,-100,-100,0,0,100,0.00,40.00,0,-999,0,0.00
2013-10-18,46,43,37,-100,-100,-100,0,0,100,0.00,40.00,0,-999,0,0.00
2013-10-19,51,40,32,-100,-100,-100,0,0,100,0.00,40.00,0,-999,0,0.00
2013-10-20,46,39,33,-100,-100,-100,0,0,100,0.00,40.00,0,-999,0,0.00
2013-10-21,42,36,32,-100,-100,-100,0,0,100,0.00,40.00,0,-999,0,0.00
2013-10-22,44,35,27,-100,-100,-100,0,0,100,0.00,40.00,0,-999,0,0.00
2013-10-23,39,35,29,-100,-100,-100,0,0,100,0.00,40.00,0,-999,0,0.00
2013-10-24,42,36,32,-100,-100,-100,0,0,100,0.00,40.00,0,-999,0,0.00
2013-10-25,50,42,32,-100,-100,-100,0,0,100,0.00,40.00,0,-999,0,0.00
2013-10-26,50,45,42,-100,-100,-100,0,0,100,0.00,40.00,0,-999,0,0.00
2013-10-27,55,41,29,-100,-100,-100,0,0,100,0.00,40.00,0,-999,0,0.00
2013-10-28,41,37,32,-100,-100,-100,0,0,100,0.00,40.00,0,-999,0,0.00
2013-10-29,44,37,31,-100,-100,-100,0,0,100,0.00,40.00,0,-999,0,0.00
2013-10-30,53,46,37,-100,-100,-100,0,0,100,0.00,40.00,0,-999,0,0.00
2013-10-31,53,48,41,-100,-100,-100,0,0,100,0.00,40.00,0,-999,0,0.00
2013-11-1,46,42,37,-100,-100,-100,0,0,100,0.00,40.00,0,-999,0,0.00
2013-11-2,44,40,33,-100,-100,-100,0,0,100,0.00,40.00,0,-999,0,0.00
2013-11-3,48,39,25,-100,-100,-100,0,0,100,0.00,40.00,0,-999,0,0.00
2013-11-4,48,45,42,-100,-100,-100,0,0,100,0.00,40.00,0,-999,0,0.00
2013-11-5,46,42,32,-100,-100,-100,0,0,100,0.00,40.00,0,-999,0,0.00
2013-11-6,42,37,31,-100,-100,-100,0,0,100,0.00,40.00,0,-999,0,0.00
2013-11-7,37,32,27,-100,-100,-100,0,0,100,0.00,40.00,0,-999,0,0.00
2013-11-8,42,34,23,-100,-100,-100,0,0,100,0.00,40.00,0,-999,0,0.00
2013-11-9,46,43,37,-100,-100,-100,0,0,100,0.00,40.00,0,-999,0,0.00
2013-11-10,46,41,37,-100,-100,-100,0,0,100,0.00,40.00,0,-999,0,0.00
2013-11-11,41,30,22,-100,-100,-100,0,0,100,0.00,40.00,0,-999,0,0.00
2013-11-12,29,22,14,-100,-100,-100,0,0,100,0.00,40.00,0,-999,0,0.00
2013-11-13,44,33,20,-100,-100,-100,0,0,100,0.00,40.00,0,-999,0,0.00
2013-11-14,48,40,33,-100,-100,-100,0,0,100,0.00,40.00,0,-999,0,0.00
2013-11-15,53,40,29,-100,-100,-100,0,0,100,0.00,40.00,0,-999,0,0.00
2013-11-16,55,46,35,-100,-100,-100,0,0,100,0.00,40.00,0,-999,0,0.00
2013-11-17,53,45,35,-100,-100,-100,0,0,100,0.00,40.00,0,-999,0,0.00
2013-11-18,35,31,25,-100,-100,-100,0,0,100,0.00,40.00,0,-999,0,0.00
2013-11-19,39,30,18,-100,-100,-100,0,0,100,0.00,40.00,0,-999,0,0.00
2013-11-20,39,36,32,-100,-100,-100,0,0,100,0.00,40.00,0,-999,0,0.00
2013-11-21,39,36,31,-100,-100,-100,0,0,100,0.00,40.00,0,-999,0,0.00
2013-11-22,32,28,25,-100,-100,-100,0,0,100,0.00,40.00,0,-999,0,0.00
2013-11-23,23,15,9,-100,-100,-100,0,0,100,0.00,40.00,0,-999,0,0.00
2013-11-24,25,18,5,-100,-100,-100,0,0,100,0.00,40.00,0,-999,0,0.00
2013-11-25,35,31,25,-100,-100,-100,0,0,100,0.00,40.00,0,-999,0,0.00
2013-11-26,35,23,13,-100,-100,-100,0,0,100,0.00,40.00,0,-999,0,0.00
2013-11-27,27,19,11,-100,-100,-100,0,0,100,0.00,40.00,0,-999,0,0.00
2013-11-28,29,25,16,-100,-100,-100,0,0,100,0.00,40.00,0,-999,0,0.00
2013-11-29,33,22,11,-100,-100,-100,0,0,100,0.00,40.00,0,-999,0,0.00
2013-11-30,44,36,29,-100,-100,-100,0,0,100,0.00,40.00,0,-999,0,0.00
2013-12-1,39,32,27,-100,-100,-100,0,0,100,0.00,40.00,0,-999,0,0.00
2013-12-2,39,29,18,-100,-100,-100,0,0,100,0.00,40.00,0,-999,0,0.00
2013-12-3,33,32,32,-100,-100,-100,0,0,100,0.00,40.00,0,-999,0,0.00
2013-12-4,37,33,31,-100,-100,-100,0,0,100,0.00,40.00,0,-999,0,0.00
2013-12-5,31,16,9,-100,-100,-100,0,0,100,0.00,40.00,0,-999,0,0.00
2013-12-6,13,7,4,-100,-100,-100,0,0,100,0.00,40.00,0,-999,0,0.00
2013-12-7,11,7,2,-100,-100,-100,0,0,100,0.00,40.00,0,-999,0,0.00
2013-12-8,13,9,5,-100,-100,-100,0,0,100,0.00,40.00,0,-999,0,0.00
2013-12-9,13,8,-2,-100,-100,-100,0,0,100,0.00,40.00,0,-999,0,0.00
2013-12-10,14,8,-2,-100,-100,-100,0,0,100,0.00,40.00,0,-999,0,0.00
2013-12-11,13,4,-4,-100,-100,-100,0,0,100,0.00,40.00,0,-999,0,0.00
2013-12-12,20,13,-2,-100,-100,-100,0,0,100,0.00,40.00,0,-999,0,0.00
2013-12-13,20,17,13,-100,-100,-100,0,0,100,0.00,40.00,0,-999,0,0.00
2013-12-14,23,17,13,-100,-100,-100,0,0,100,0.00,40.00,0,-999,0,0.00
2013-12-15,14,7,2,-100,-100,-100,0,0,100,0.00,40.00,0,-999,0,0.00
2013-12-16,16,10,-4,-100,-100,-100,0,0,100,0.00,40.00,0,-999,0,0.00
2013-12-17,32,25,14,-100,-100,-100,0,0,100,0.00,40.00,0,-999,0,0.00
2013-12-18,35,23,5,-100,-100,-100,0,0,100,0.00,40.00,0,-999,0,0.00
2013-12-19,32,24,22,-100,-100,-100,0,0,100,0.00,40.00,0,-999,0,0.00
2013-12-20,23,20,18,-100,-100,-100,0,0,100,0.00,40.00,0,-999,0,0.00
2013-12-21,27,24,22,-100,-100,-100,0,0,100,0.00,40.00,0,-999,0,0.00
2013-12-22,25,24,22,-100,-100,-100,0,0,100,0.00,40.00,0,-999,0,0.00
2013-12-23,23,10,-2,-100,-100,-100,0,0,100,0.00,40.00,0,-999,0,0.00
2013-12-24,14,3,-14,-100,-100,-100,0,0,100,0.00,40.00,0,-999,0,0.00
2013-12-25,23,18,11,-100,-100,-100,0,0,100,0.00,40.00,0,-999,0,0.00
2013-12-26,23,19,14,-100,-100,-100,0,0,100,0.00,40.00,0,-999,0,0.00
2013-12-27,37,24,5,-100,-100,-100,0,0,100,0.00,40.00,0,-999,0,0.00
2013-12-28,46,35,23,-100,-100,-100,0,0,100,0.00,40.00,0,-999,0,0.00
2013-12-29,39,16,-7,-100,-100,-100,0,0,100,0.00,40.00,0,-999,0,0.00
2013-12-30,5,2,-11,-100,-100,-100,0,0,100,0.00,40.00,0,-999,0,0.00
2013-12-31,7,3,-5,-100,-100,-100,0,0,100,0.00,40.00,0,-999,0,0.00
2014-1-1,7,2,-7,-100,-100,-100,0,0,100,0.00,40.00,0,-999,0,0.00
2014-1-2,11,6,2,-100,-100,-100,0,0,100,0.00,40.00,0,-999,0,0.00